DIRECCIÓN GENERAL DE AERONÁUTICA CIVIL
DIRECCIÓN METEOROLÓGICA DE CHILE
INFORMACIÓN METAR Y TAF

FIR PUERTO MONTT

Estación: SCQP
METAR SCQP 311600Z 21003KT 150V280 CAVOK 14/09 Q1022=

TAF SCQP 311031Z 3112/0112 VRB02KT 9999 OVC005 TX20/3119Z TN06/0110Z PROB30 TEMPO 3112/3114 0800 FG BECMG 3114/3116 22005KT SCT030 BECMG 0102/0104 VRB02KT BECMG 0109/0111 32010KT BKN030=

Estación: SCVD
METAR SCVD 311600Z VRB03KT 9999 SCT030 BKN063 BKN200 16/09 Q1022=

TAF SCVD 311022Z 3112/3124 VRB02KT 9999 BKN010 TN05/3112Z TX18/3118Z TEMPO 3112/3114 0600 FG BECMG 3014/3016 31010KT 9999 SCT033=

Estación: SCJO
METAR SCJO 311600Z 36005KT 9999 FEW025 BKN035 15/09 Q1022=

TAF SCJO 311023Z 3112/3124 36006KT 9999 BKN007 TN09/3012Z TX17/3019Z TEMPO 3112/3114 2000 BR BECMG 3018/3020 30010KT BKN025=

Estación: SCTE
METAR SCTE 311600Z 36010KT 9999 BKN030 BKN070 16/10 Q1021 NOSIG=

TAF SCTE 311032Z 3112/0112 36010KT 9999 BKN030 TX16/3119Z TN09/0110Z11037Z 3112/0112 29020G30KT 9999 FEW030 TN02/3112Z TX09/3117Z BECMG 3116/3118 32018G28KT 9000 -RA SCT030 BKN050 BECMG 3119/3121 35018G28KT 8000 -RA SCT025 OVC050 TEMPO 0103/0112 7000 -RA -SHRA SCT010 BKN020 OVC040 BECMG 0107/0109 25015G25KT 8000 -SHRA -RA SCT025 BKN045 BECMG 0110/0112 22030G45KT=

Estación: SCPQ
METAR SCPQ 311600Z 33011KT 290V360 9999 BKN031 15/11 Q1018=

TAF SCPQ 311020Z 3112/3124 34005KT 9999 BKN020 TN09/3112Z TX16/3118Z TEMPO 3112/3114 0600 FG OVC010 BECMG 3120/3122 33015G25KT 6000 RA OVC020=

Estación: SCON
METAR SCON 311600Z VRB04KT 9999 BKN015 15/11 Q1018=

TAF SCON 281051Z 2812/2824 36010KT 9999 SCT010 BKN023 OVC060 TN14/ 2812Z TX16/2818Z TEMPO 2812/2813 5000 -SHRA BECMG 2813/2815 36015KT 5000 RA BKN010 OVC025 BECMG 2818/2820 27010KT 9999 NSW BKN020 BKN050=

Estación: SCTN
METAR SCTN 311600Z 35014KT 9999 SCT010 14/12 Q1018=

TAF SCTN 311029Z 3112/3124 33005KT 9999 SCT020 TN10/3112Z TX14/3118Z BECMG 3118/3120 6000 -RA OVC012 BECMG 3122/3124 33015G25KT=

Estación: SCFT
METAR SCFT 311600Z 27009KT 230V300 9999 BKN040 14/03 Q1016=

NIL=

Estación: SCAP
METAR SCAP 311600Z 22009KT 160V260 9999 VCSH BKN025 14/05 Q1020=

NIL=

Estación: SCMK
METAR SCMK 311600Z 35013KT 9999 BKN016 15/11 Q1016=

TAF SCMK 311026Z 3112/3124 33015KT 5000 -RA OVC020 TN10/3012Z TX14/3118Z BECMG 3115/3117 32015G30KT 4000 RA OVC008=

Estación: SCAS
METAR SCAS 311600Z 33004KT 9000 -RA BKN023 OVC033 11/09 Q1011=

NIL=

Estación: SCCY
METAR SCCY 311600Z 16004KT 9999 OVC030 12/07 Q1008=

TAF SCCY 311027Z 3112/3124 30007G17KT 9999 BKN030 TN10/3112Z TX14/3118Z BECMG 3114/3116 30012G27KT 6000 RA OVC020=

Estación: SCBA
METAR SCBA 311600Z 31019KT 280V340 9999 OVC040 10/05 Q1008=

TAF SCBA 311033Z 3112/0112 30017KT 9999 BKN050 TX13/3118Z TN07/0110Z BECMG 3115/3117 7000 -RA BKN030 BECMG 3118/3120 30020G45KT BECMG 0106/0108 30020KT 9999 NSW FEW060=

Estación: SCCC
METAR SCCC 311600Z 33017KT 9999 BKN040 15/03 Q1005=

NIL=

Estación: SCHR
METAR SCHR 311600Z 27008KT 9999 BKN035 OVC080 11/05 Q1003=

TAF COR SCHR 311125Z 3112/0100 27005KT 9999 FEW040 BKN070 TN06/3112Z TX11/3118Z TEMPO 3112/3115 VRB03KT BECMG 3115/3117 34010KT BECMG 3121/3123 SCT040 BKN060 TEMPO 3121/0100 8000 -SHRA SCT030 BKN060=


Volver